Terminal Aerodrome Forecast
Issued by NWS

Current Version | Previous Version | Text Only | Print | Product List | Glossary On
Versions: 1 2 3 4 5 6 7 8 9 10 11 12 13 14 15 16
000
FTUS43 KDTX 292335
TAFMBS
TAF
KMBS 292335Z 3000/3024 31011G19KT P6SM OVC025
     FM300100 32016G28KT P6SM -SHSN OVC024
     FM300600 32015G25KT P6SM BKN035
     FM301200 33014G22KT P6SM SCT040
     FM302000 30006KT P6SM SCT040 BKN100=

USA.gov is the U.S. government's official web portal to all federal, state and local government web resources and services.